createdAt,value
2019-05-09T00:01:04.007Z,18.10
2019-05-09T00:03:33.519Z,21.07
2019-05-09T00:06:04.431Z,20.17
2019-05-09T00:08:33.539Z,19.82
2019-05-09T00:11:03.696Z,17.30
2019-05-09T00:13:34.132Z,24.92
2019-05-09T00:16:03.641Z,20.27
2019-05-09T00:18:33.624Z,21.07
2019-05-09T00:21:06.624Z,20.08
2019-05-09T00:23:35.066Z,23.05
2019-05-09T00:26:04.277Z,22.73
2019-05-09T00:28:36.116Z,23.00
2019-05-09T00:31:06.323Z,21.35
2019-05-09T00:33:34.758Z,24.05
2019-05-09T00:36:04.150Z,22.37
2019-05-09T00:38:45.829Z,21.45
2019-05-09T00:41:14.811Z,20.12
2019-05-09T00:43:44.889Z,21.23
2019-05-09T00:46:14.979Z,18.50
2019-05-09T00:48:53.302Z,21.42
2019-05-09T00:51:23.267Z,21.33
2019-05-09T00:53:53.653Z,13.00
2019-05-09T00:56:24.027Z,15.78
2019-05-09T00:58:53.516Z,13.43
2019-05-09T01:01:23.968Z,10.48
2019-05-09T01:03:53.512Z,13.10
2019-05-09T01:06:24.032Z,10.82
2019-05-09T01:08:53.620Z,9.08
2019-05-09T01:11:24.261Z,11.10
2019-05-09T01:13:54.250Z,10.18
2019-05-09T01:16:24.156Z,9.45
2019-05-09T01:18:54.454Z,9.30
2019-05-09T01:21:24.066Z,10.10
2019-05-09T01:23:53.938Z,9.28
2019-05-09T01:26:23.947Z,9.70
2019-05-09T01:28:53.790Z,7.47
2019-05-09T01:31:23.995Z,8.50
2019-05-09T01:33:54.786Z,7.53
2019-05-09T01:36:23.579Z,8.13
2019-05-09T01:38:53.983Z,6.15
2019-05-09T01:41:29.149Z,6.42
2019-05-09T01:43:53.679Z,6.50
2019-05-09T01:46:23.585Z,8.00
2019-05-09T01:48:53.923Z,6.78
2019-05-09T01:51:23.375Z,4.90
2019-05-09T01:53:53.698Z,9.88
2019-05-09T01:56:23.517Z,7.33
2019-05-09T01:58:53.867Z,8.60
2019-05-09T02:01:24.018Z,7.33
2019-05-09T02:03:53.639Z,12.43
2019-05-09T02:06:24.409Z,8.60
2019-05-09T02:08:54.471Z,10.93
2019-05-09T02:11:23.835Z,11.53
2019-05-09T02:13:53.563Z,10.98
2019-05-09T02:16:23.858Z,8.78
2019-05-09T02:18:53.954Z,10.65
2019-05-09T02:21:23.993Z,11.80
2019-05-09T02:23:53.671Z,10.75
2019-05-09T02:26:24.049Z,10.32
2019-05-09T02:28:53.876Z,13.15
2019-05-09T02:31:24.581Z,10.18
2019-05-09T02:33:54.219Z,9.33
2019-05-09T02:36:23.047Z,10.70
2019-05-09T02:38:51.484Z,11.83
2019-05-09T02:41:20.138Z,13.40
2019-05-09T02:43:49.827Z,9.68
2019-05-09T02:46:32.277Z,10.53
2019-05-09T02:49:00.730Z,10.25
2019-05-09T02:51:29.588Z,10.05
2019-05-09T02:53:58.674Z,14.23
2019-05-09T02:56:29.468Z,9.23
2019-05-09T02:59:02.811Z,10.55
2019-05-09T03:04:03.646Z,10.95
2019-05-09T03:06:32.082Z,14.58
2019-05-09T03:09:00.611Z,14.55
2019-05-09T03:11:29.204Z,14.13
2019-05-09T03:13:58.770Z,12.00
2019-05-09T03:16:29.319Z,11.78
2019-05-09T03:18:58.811Z,11.68
2019-05-09T03:21:30.054Z,11.93
2019-05-09T03:23:59.373Z,15.60
2019-05-09T03:26:30.089Z,17.52
2019-05-09T03:29:19.032Z,16.77
2019-05-09T03:31:50.062Z,13.45
2019-05-09T03:34:19.550Z,17.57
2019-05-09T03:36:47.799Z,16.25
2019-05-09T03:39:18.369Z,18.67
2019-05-09T03:41:48.749Z,14.78
2019-05-09T03:44:17.838Z,18.62
2019-05-09T03:47:03.851Z,16.07
2019-05-09T03:49:32.282Z,14.55
2019-05-09T03:52:00.737Z,18.57
2019-05-09T03:54:29.181Z,15.13
2019-05-09T03:57:08.278Z,14.90
2019-05-09T03:59:38.080Z,19.77
2019-05-09T04:02:09.903Z,15.58
2019-05-09T04:04:38.384Z,17.45
2019-05-09T04:07:08.394Z,17.48
2019-05-09T04:09:37.766Z,17.45
2019-05-09T04:12:07.667Z,15.78
2019-05-09T04:14:37.655Z,20.37
2019-05-09T04:17:07.877Z,17.75
2019-05-09T04:19:38.088Z,20.92
2019-05-09T04:22:08.067Z,19.23
2019-05-09T04:24:38.265Z,19.70
2019-05-09T04:27:11.465Z,22.58
2019-05-09T04:32:08.051Z,22.42
2019-05-09T04:34:38.038Z,21.42
2019-05-09T04:37:08.095Z,19.87
2019-05-09T04:39:38.698Z,24.10
2019-05-09T04:42:08.405Z,28.60
2019-05-09T04:44:41.557Z,26.50
2019-05-09T04:47:10.251Z,28.10
2019-05-09T04:49:41.154Z,23.38
2019-05-09T04:52:09.142Z,24.18
2019-05-09T04:54:38.447Z,27.35
2019-05-09T04:57:07.746Z,26.07
2019-05-09T04:59:37.355Z,25.25
2019-05-09T05:02:24.171Z,27.87
2019-05-09T05:04:53.019Z,23.62
2019-05-09T05:07:21.647Z,25.80
2019-05-09T05:09:50.207Z,25.32
2019-05-09T05:12:18.841Z,25.12
2019-05-09T05:14:47.662Z,24.25
2019-05-09T05:17:17.956Z,18.80
2019-05-09T05:19:47.789Z,22.67
2019-05-09T05:22:18.322Z,20.12
2019-05-09T05:24:48.929Z,22.62
2019-05-09T05:27:18.833Z,23.47
2019-05-09T05:29:47.788Z,18.65
2019-05-09T05:32:18.005Z,20.32
2019-05-09T05:35:07.564Z,18.32
2019-05-09T05:37:38.555Z,20.65
2019-05-09T05:40:07.785Z,15.50
2019-05-09T05:42:38.917Z,16.27
2019-05-09T05:45:08.819Z,18.92
2019-05-09T05:47:42.353Z,15.60
2019-05-09T05:50:10.888Z,21.12
2019-05-09T05:52:40.260Z,18.87
2019-05-09T05:55:09.051Z,16.00
2019-05-09T05:57:38.612Z,21.33
2019-05-09T06:00:08.869Z,15.72
2019-05-09T06:02:38.528Z,15.75
2019-05-09T06:05:08.447Z,17.60
2019-05-09T06:07:43.204Z,15.70
2019-05-09T06:10:12.136Z,19.48
2019-05-09T06:12:40.943Z,15.40
2019-05-09T06:15:09.926Z,18.80
2019-05-09T06:17:38.636Z,17.90
2019-05-09T06:20:08.901Z,23.57
2019-05-09T06:22:38.291Z,15.25
2019-05-09T06:25:09.835Z,17.73
2019-05-09T06:27:37.627Z,14.38
2019-05-09T06:30:08.683Z,11.97
2019-05-09T06:32:38.496Z,26.52
2019-05-09T06:35:08.404Z,18.48
2019-05-09T06:37:38.264Z,16.93
2019-05-09T06:40:08.091Z,15.25
2019-05-09T06:42:38.146Z,19.55
2019-05-09T06:45:24.602Z,13.03
2019-05-09T06:47:53.058Z,17.27
2019-05-09T06:50:21.763Z,8.23
2019-05-09T06:52:50.238Z,11.88
2019-05-09T06:55:18.682Z,14.70
2019-05-09T06:57:48.941Z,11.68
2019-05-09T07:00:53.595Z,13.53
2019-05-09T07:03:23.713Z,11.70
2019-05-09T07:05:53.792Z,7.30
2019-05-09T07:08:23.978Z,15.00
2019-05-09T07:10:52.438Z,14.23
2019-05-09T07:13:20.886Z,14.47
2019-05-09T07:15:49.615Z,8.55
2019-05-09T07:18:18.428Z,10.55
2019-05-09T07:20:48.301Z,7.12
2019-05-09T07:23:17.779Z,9.93
2019-05-09T07:26:04.248Z,5.28
2019-05-09T07:28:32.680Z,7.25
2019-05-09T07:31:07.536Z,8.13
2019-05-09T07:33:38.342Z,7.40
2019-05-09T07:36:08.552Z,9.43
2019-05-09T07:38:38.410Z,6.67
2019-05-09T07:41:08.855Z,8.33
2019-05-09T07:43:38.449Z,7.80
2019-05-09T07:46:09.124Z,6.00
2019-05-09T07:48:38.657Z,4.55
2019-05-09T07:51:07.786Z,9.48
2019-05-09T07:53:37.986Z,11.68
2019-05-09T07:56:08.010Z,10.98
2019-05-09T07:58:37.750Z,5.47
2019-05-09T08:01:08.600Z,10.40
2019-05-09T08:03:38.444Z,5.97
2019-05-09T08:06:08.716Z,14.30
2019-05-09T08:08:38.456Z,4.95
2019-05-09T08:11:08.921Z,5.78
2019-05-09T08:13:39.334Z,5.03
2019-05-09T08:16:12.399Z,7.47
2019-05-09T08:18:37.856Z,9.63
2019-05-09T08:21:08.350Z,5.53
2019-05-09T08:23:37.963Z,6.37
2019-05-09T08:26:08.816Z,8.23
2019-05-09T08:28:38.880Z,6.45
2019-05-09T08:31:08.459Z,6.92
2019-05-09T08:33:38.127Z,7.67
2019-05-09T08:36:08.635Z,6.83
2019-05-09T08:38:39.053Z,6.03
2019-05-09T08:41:12.440Z,7.65
2019-05-09T08:43:41.283Z,5.33
2019-05-09T08:46:10.370Z,6.45
2019-05-09T08:48:38.847Z,3.85
2019-05-09T08:51:09.105Z,8.53
2019-05-09T08:53:38.094Z,6.67
2019-05-09T08:56:09.006Z,5.03
2019-05-09T08:58:38.217Z,6.03
2019-05-09T09:01:09.682Z,3.35
2019-05-09T09:03:37.706Z,6.75
2019-05-09T09:06:08.284Z,5.50
2019-05-09T09:08:37.937Z,7.42
2019-05-09T09:11:08.586Z,12.95
2019-05-09T09:13:37.784Z,7.95
2019-05-09T09:16:15.739Z,4.03
2019-05-09T09:18:38.757Z,6.47
2019-05-09T09:21:08.065Z,5.80
2019-05-09T09:23:43.907Z,10.53
2019-05-09T09:26:08.074Z,8.95
2019-05-09T09:28:37.953Z,6.83
2019-05-09T09:31:08.134Z,7.05
2019-05-09T09:33:37.624Z,5.08
2019-05-09T09:36:08.658Z,10.58
2019-05-09T09:38:37.549Z,6.87
2019-05-09T09:41:07.761Z,4.42
2019-05-09T09:43:38.411Z,9.53
2019-05-09T09:46:13.998Z,6.92
2019-05-09T09:48:38.843Z,5.72
2019-05-09T09:51:08.176Z,4.78
2019-05-09T09:53:38.485Z,6.50
2019-05-09T09:56:08.667Z,5.00
2019-05-09T09:58:37.915Z,4.90
2019-05-09T10:01:23.547Z,10.72
2019-05-09T10:03:53.642Z,6.72
2019-05-09T10:06:22.101Z,10.80
2019-05-09T10:08:50.607Z,7.20
2019-05-09T10:11:19.431Z,7.22
2019-05-09T10:13:51.542Z,9.10
2019-05-09T10:16:32.424Z,6.20
2019-05-09T10:19:03.907Z,4.72
2019-05-09T10:21:38.250Z,6.60
2019-05-09T10:24:07.965Z,3.75
2019-05-09T10:26:39.005Z,5.35
2019-05-09T10:29:07.593Z,5.33
2019-05-09T10:31:39.049Z,6.60
2019-05-09T10:34:06.470Z,3.70
2019-05-09T10:36:34.916Z,4.05
2019-05-09T10:39:05.240Z,5.83
2019-05-09T10:41:33.700Z,10.10
2019-05-09T10:44:08.320Z,4.20
2019-05-09T10:46:52.092Z,8.03
2019-05-09T10:49:09.700Z,7.80
2019-05-09T10:51:38.144Z,5.15
2019-05-09T10:54:08.085Z,5.92
2019-05-09T10:56:38.365Z,3.55
2019-05-09T10:59:07.897Z,5.80
2019-05-09T11:01:38.101Z,3.83
2019-05-09T11:04:08.215Z,7.15
2019-05-09T11:06:38.298Z,5.83
2019-05-09T11:09:09.520Z,8.45
2019-05-09T11:11:38.051Z,8.68
2019-05-09T11:14:08.615Z,5.37
2019-05-09T11:16:45.434Z,4.53
2019-05-09T11:19:08.196Z,7.72
2019-05-09T11:21:39.123Z,9.00
2019-05-09T11:24:08.389Z,5.83
2019-05-09T11:26:39.534Z,6.65
2019-05-09T11:29:08.094Z,9.98
2019-05-09T11:31:38.392Z,9.18
2019-05-09T11:34:08.936Z,9.53
2019-05-09T11:36:38.100Z,3.65
2019-05-09T11:39:10.656Z,7.87
2019-05-09T11:41:38.542Z,5.97
2019-05-09T11:44:08.583Z,3.67
2019-05-09T11:46:38.218Z,7.40
2019-05-09T11:49:08.374Z,7.70
2019-05-09T11:51:37.157Z,4.47
2019-05-09T11:54:05.626Z,2.47
2019-05-09T11:56:34.131Z,6.35
2019-05-09T11:59:02.596Z,2.65
2019-05-09T12:01:31.065Z,5.03
2019-05-09T12:03:59.517Z,10.43
2019-05-09T12:06:29.142Z,3.72
2019-05-09T12:08:58.802Z,4.90
2019-05-09T12:11:27.623Z,6.00
2019-05-09T12:13:58.151Z,7.42
2019-05-09T12:16:27.924Z,6.70
2019-05-09T12:18:58.424Z,6.65
2019-05-09T12:21:28.184Z,7.08
2019-05-09T12:23:58.308Z,5.47
2019-05-09T12:26:29.095Z,4.97
2019-05-09T12:28:57.969Z,8.08
2019-05-09T12:31:28.870Z,4.30
2019-05-09T12:33:59.135Z,3.98
2019-05-09T12:36:28.637Z,8.23
2019-05-09T12:38:59.186Z,4.78
2019-05-09T12:41:31.593Z,9.85
2019-05-09T12:43:58.031Z,8.85
2019-05-09T12:46:28.390Z,2.27
2019-05-09T12:48:59.206Z,8.90
2019-05-09T12:51:28.127Z,6.00
2019-05-09T12:53:57.863Z,5.30
2019-05-09T12:56:28.483Z,8.45
2019-05-09T12:58:57.899Z,5.58
2019-05-09T13:01:28.143Z,5.08
2019-05-09T13:03:58.328Z,8.10
2019-05-09T13:06:29.552Z,4.05
2019-05-09T13:08:58.689Z,8.88
2019-05-09T13:11:27.939Z,2.95
2019-05-09T13:13:56.693Z,6.22
2019-05-09T13:16:43.440Z,5.75
2019-05-09T13:19:02.309Z,5.07
2019-05-09T13:21:32.548Z,3.53
2019-05-09T13:23:59.365Z,7.97
2019-05-09T13:26:28.863Z,7.25
2019-05-09T13:28:58.879Z,6.95
2019-05-09T13:31:29.341Z,3.60
2019-05-09T13:33:58.478Z,3.65
2019-05-09T13:36:28.433Z,2.25
2019-05-09T13:39:04.434Z,6.22
2019-05-09T13:41:27.850Z,4.72
2019-05-09T13:43:59.071Z,4.20
2019-05-09T13:46:45.817Z,7.53
2019-05-09T13:49:15.737Z,4.45
2019-05-09T13:51:50.830Z,5.58
2019-05-09T13:54:14.560Z,8.48
2019-05-09T13:56:43.021Z,5.70
2019-05-09T13:59:11.465Z,6.60
2019-05-09T14:01:40.267Z,7.15
2019-05-09T14:04:08.710Z,6.33
2019-05-09T14:06:38.734Z,9.58
2019-05-09T14:09:10.558Z,5.70
2019-05-09T14:11:39.328Z,9.63
2019-05-09T14:14:08.080Z,6.42
2019-05-09T14:16:38.846Z,11.75
2019-05-09T14:19:25.974Z,5.08
2019-05-09T14:21:37.887Z,11.40
2019-05-09T14:24:14.240Z,7.40
2019-05-09T14:26:36.511Z,6.28
2019-05-09T14:29:05.313Z,7.42
2019-05-09T14:31:33.806Z,3.42
2019-05-09T14:34:02.274Z,3.75
2019-05-09T14:36:31.481Z,5.42
2019-05-09T14:39:00.259Z,4.95
2019-05-09T14:41:28.694Z,8.90
2019-05-09T14:43:59.619Z,6.85
2019-05-09T14:46:28.458Z,6.97
2019-05-09T14:48:58.379Z,4.25
2019-05-09T14:51:28.405Z,6.35
2019-05-09T14:53:59.492Z,4.20
2019-05-09T14:56:27.957Z,5.50
2019-05-09T14:58:58.117Z,5.30
2019-05-09T15:01:28.743Z,7.75
2019-05-09T15:03:58.618Z,7.37
2019-05-09T15:06:28.284Z,6.05
2019-05-09T15:08:58.132Z,4.30
2019-05-09T15:11:28.242Z,8.05
2019-05-09T15:13:58.491Z,9.95
2019-05-09T15:16:28.233Z,8.83
2019-05-09T15:18:58.379Z,5.35
2019-05-09T15:21:27.163Z,5.62
2019-05-09T15:23:55.589Z,2.85
2019-05-09T15:26:24.077Z,3.70
2019-05-09T15:28:52.525Z,3.47
2019-05-09T15:31:20.958Z,8.75
2019-05-09T15:33:49.425Z,5.35
2019-05-09T15:36:19.201Z,6.37
2019-05-09T15:38:48.752Z,5.58
2019-05-09T15:41:18.373Z,3.60
2019-05-09T15:43:48.580Z,9.88
2019-05-09T15:46:21.989Z,4.55
2019-05-09T15:48:50.704Z,7.85
2019-05-09T15:51:19.209Z,4.03
2019-05-09T15:53:48.646Z,3.80
2019-05-09T15:56:18.809Z,7.47
2019-05-09T15:58:48.997Z,6.83
2019-05-09T16:01:18.486Z,4.22
2019-05-09T16:03:48.586Z,3.83
2019-05-09T16:06:19.204Z,5.12
2019-05-09T16:08:47.515Z,7.58
2019-05-09T16:11:18.040Z,4.03
2019-05-09T16:13:47.981Z,6.08
2019-05-09T16:16:17.546Z,7.10
2019-05-09T16:18:48.572Z,4.70
2019-05-09T16:21:16.955Z,5.00
2019-05-09T16:23:45.448Z,7.08
2019-05-09T16:26:14.343Z,4.10
2019-05-09T16:28:43.043Z,4.72
2019-05-09T16:31:11.506Z,5.97
2019-05-09T16:33:40.251Z,3.90
2019-05-09T16:36:09.086Z,5.42
2019-05-09T16:38:43.446Z,2.98
2019-05-09T16:41:08.244Z,2.65
2019-05-09T16:43:39.154Z,3.52
2019-05-09T16:46:07.661Z,4.62
2019-05-09T16:48:36.202Z,9.80
2019-05-09T16:51:04.714Z,5.47
2019-05-09T16:53:33.546Z,10.32
2019-05-09T16:56:02.350Z,4.75
2019-05-09T16:58:30.804Z,2.42
2019-05-09T17:00:59.591Z,5.62
2019-05-09T17:03:28.440Z,4.90
2019-05-09T17:05:58.263Z,1.75
2019-05-09T17:08:28.268Z,3.72
2019-05-09T17:10:58.633Z,3.70
2019-05-09T17:13:28.887Z,1.50
2019-05-09T17:15:57.315Z,2.65
2019-05-09T17:18:28.121Z,3.00
2019-05-09T17:21:18.438Z,9.75
2019-05-09T17:23:45.139Z,4.20
2019-05-09T17:26:17.434Z,2.67
2019-05-09T17:28:43.786Z,5.42
2019-05-09T17:31:12.625Z,2.12
2019-05-09T17:33:41.168Z,1.02
2019-05-09T17:36:09.592Z,5.55
2019-05-09T17:38:38.470Z,2.92
2019-05-09T17:41:08.247Z,5.33
2019-05-09T17:43:38.340Z,4.35
2019-05-09T17:46:07.691Z,7.15
2019-05-09T17:48:38.579Z,2.77
2019-05-09T17:51:08.447Z,2.22
2019-05-09T17:53:37.320Z,1.37
2019-05-09T17:56:10.552Z,3.83
2019-05-09T17:58:37.995Z,1.72
2019-05-09T18:01:07.830Z,1.20
2019-05-09T18:03:38.461Z,3.17
2019-05-09T18:06:08.267Z,1.42
2019-05-09T18:08:37.719Z,3.30
2019-05-09T18:11:08.697Z,2.25
2019-05-09T18:13:38.604Z,1.82
2019-05-09T18:16:07.106Z,3.20
2019-05-09T18:18:38.669Z,3.37
2019-05-09T18:21:08.334Z,4.22
2019-05-09T18:23:38.656Z,3.83
2019-05-09T18:26:07.926Z,2.62
2019-05-09T18:28:38.539Z,3.25
2019-05-09T18:31:08.025Z,5.50
2019-05-09T18:33:38.510Z,4.42
2019-05-09T18:36:06.938Z,2.77
2019-05-09T18:38:35.385Z,2.72
2019-05-09T18:41:07.044Z,5.03
2019-05-09T18:43:34.058Z,4.67
2019-05-09T18:46:02.746Z,3.17
2019-05-09T18:48:31.417Z,1.62
2019-05-09T18:50:59.857Z,1.30
2019-05-09T18:53:28.301Z,3.58
2019-05-09T18:55:56.748Z,1.98
2019-05-09T18:58:25.509Z,4.17
2019-05-09T19:00:54.395Z,3.50
2019-05-09T19:03:23.114Z,4.62
2019-05-09T19:05:51.561Z,2.67
2019-05-09T19:08:20.001Z,2.47
2019-05-09T19:10:51.943Z,7.08
2019-05-09T19:13:18.624Z,1.82
2019-05-09T19:15:51.698Z,2.40
2019-05-09T19:18:25.421Z,1.62
2019-05-09T19:21:10.628Z,4.10
2019-05-09T19:23:39.064Z,5.78
2019-05-09T19:26:09.131Z,8.30
2019-05-09T19:28:37.898Z,2.47
2019-05-09T19:31:06.674Z,3.55
2019-05-09T19:33:35.189Z,2.45
2019-05-09T19:36:03.654Z,1.57
2019-05-09T19:38:32.153Z,1.45
2019-05-09T19:41:00.608Z,1.75
2019-05-09T19:43:29.121Z,3.12
2019-05-09T19:45:57.829Z,1.65
2019-05-09T19:48:26.277Z,0.80
2019-05-09T19:50:55.047Z,3.75
2019-05-09T19:53:23.755Z,2.52
2019-05-09T19:55:52.447Z,5.30
2019-05-09T19:58:20.906Z,2.15
2019-05-09T20:00:49.334Z,3.15
2019-05-09T20:03:18.176Z,2.72
2019-05-09T20:05:46.625Z,4.25
2019-05-09T20:08:15.321Z,4.22
2019-05-09T20:10:48.199Z,1.77
2019-05-09T20:16:02.616Z,4.03
2019-05-09T20:18:31.075Z,3.90
2019-05-09T20:21:00.061Z,5.10
2019-05-09T20:23:28.948Z,1.98
2019-05-09T20:25:57.984Z,2.15
2019-05-09T20:28:26.433Z,3.77
2019-05-09T20:30:55.023Z,1.95
2019-05-09T20:33:23.822Z,2.10
2019-05-09T20:35:52.994Z,3.55
2019-05-09T20:38:21.732Z,9.30
2019-05-09T20:40:50.675Z,5.08
2019-05-09T20:43:19.317Z,2.47
2019-05-09T20:45:48.270Z,3.02
2019-05-09T20:48:17.388Z,4.20
2019-05-09T20:50:46.030Z,2.70
2019-05-09T20:53:14.910Z,4.87
2019-05-09T20:55:43.890Z,4.70
2019-05-09T20:58:12.814Z,3.55
2019-05-09T21:00:41.441Z,2.92
2019-05-09T21:03:10.062Z,2.02
2019-05-09T21:05:38.949Z,1.45
2019-05-09T21:08:07.577Z,2.47
2019-05-09T21:10:36.529Z,2.40
2019-05-09T21:13:05.147Z,3.52
2019-05-09T21:15:33.785Z,3.62
2019-05-09T21:18:02.419Z,3.98
2019-05-09T21:20:31.111Z,3.75
2019-05-09T21:23:00.005Z,5.50
2019-05-09T21:25:32.776Z,1.92
2019-05-09T21:27:59.330Z,7.72
2019-05-09T21:30:28.294Z,1.77
2019-05-09T21:32:56.908Z,1.98
2019-05-09T21:35:25.358Z,5.72
2019-05-09T21:37:54.073Z,2.42
2019-05-09T21:40:22.547Z,1.35
2019-05-09T21:42:50.993Z,3.17
2019-05-09T21:45:19.516Z,2.02
2019-05-09T21:47:47.976Z,1.92
2019-05-09T21:50:16.490Z,2.80
2019-05-09T21:52:45.199Z,1.45
2019-05-09T21:55:13.950Z,3.75
2019-05-09T21:57:42.395Z,7.20
2019-05-09T22:00:14.142Z,1.70
2019-05-09T22:02:42.851Z,2.65
2019-05-09T22:05:11.633Z,3.35
2019-05-09T22:07:40.433Z,2.00
2019-05-09T22:10:09.270Z,7.05
2019-05-09T22:12:37.713Z,2.85
2019-05-09T22:15:06.899Z,6.62
2019-05-09T22:17:41.471Z,7.50
2019-05-09T22:20:13.239Z,1.80
2019-05-09T22:22:41.990Z,2.05
2019-05-09T22:25:10.867Z,1.92
2019-05-09T22:27:39.432Z,1.50
2019-05-09T22:30:09.550Z,4.22
2019-05-09T22:32:38.048Z,1.65
2019-05-09T22:35:08.539Z,3.22
2019-05-09T22:37:37.449Z,2.17
2019-05-09T22:40:06.968Z,2.17
2019-05-09T22:42:35.590Z,3.10
2019-05-09T22:45:06.026Z,5.90
2019-05-09T22:47:34.490Z,3.08
2019-05-09T22:50:03.239Z,1.92
2019-05-09T22:52:31.938Z,2.37
2019-05-09T22:55:00.371Z,3.90
2019-05-09T22:57:28.815Z,3.60
2019-05-09T22:59:57.267Z,4.00
2019-05-09T23:02:25.693Z,7.97
2019-05-09T23:04:54.157Z,3.05
2019-05-09T23:07:22.588Z,2.17
2019-05-09T23:09:51.024Z,2.60
2019-05-09T23:12:19.476Z,6.67
2019-05-09T23:14:47.949Z,5.58
2019-05-09T23:17:19.442Z,2.72
2019-05-09T23:19:47.874Z,2.02
2019-05-09T23:22:18.396Z,1.82
2019-05-09T23:24:46.886Z,3.45
2019-05-09T23:27:16.973Z,4.92
2019-05-09T23:29:47.678Z,1.87
2019-05-09T23:32:23.753Z,2.47
2019-05-09T23:34:52.176Z,8.53
2019-05-09T23:37:20.615Z,2.77
2019-05-09T23:39:53.089Z,1.85
2019-05-09T23:42:21.785Z,2.25
2019-05-09T23:44:50.225Z,3.08
2019-05-09T23:47:18.666Z,4.45
2019-05-09T23:49:47.401Z,3.67
2019-05-09T23:52:16.425Z,3.02
2019-05-09T23:55:03.061Z,2.12
2019-05-09T23:57:49.597Z,2.47
